AEE144 LGAV-LGAL
Flight info
| Callsign | AEE144 |
|---|---|
| Flight time | 0h 39m |
| Altitude | 23000 |
| Route | KRO T162 LMO |
| Aircraft | A320/M-SDE3FGHIRWY/LB1 |
Departure
| Time | 2026-04-25 08:55 |
|---|---|
| Airport | Athens Eleftherios Venizelos International Airport (LGAV) |
Arrival
| Time | 2026-04-25 09:34 |
|---|---|
| Airport | Alexandroupoli Democritus Airport (LGAL) |
| Time | Latitude | Longitude | Altitude | Speed | Heading |
|---|---|---|---|---|---|
| 2026-04-25 08:17 | 37.93867 | 23.95094 | 299 ft | 0 kts | 305° |
| 2026-04-25 08:41 | 37.93865 | 23.95096 | 298 ft | 1 kts | 305° |
| 2026-04-25 08:42 | 37.93859 | 23.95108 | 296 ft | 2 kts | 304° |
| 2026-04-25 08:42 | 37.93850 | 23.95123 | 292 ft | 2 kts | 305° |
| 2026-04-25 08:42 | 37.93845 | 23.95133 | 289 ft | 1 kts | 306° |
| 2026-04-25 08:42 | 37.93837 | 23.95150 | 284 ft | 2 kts | 281° |
| 2026-04-25 08:43 | 37.93836 | 23.95169 | 279 ft | 2 kts | 264° |
| 2026-04-25 08:43 | 37.93839 | 23.95188 | 277 ft | 2 kts | 248° |
| 2026-04-25 08:43 | 37.93846 | 23.95204 | 277 ft | 2 kts | 230° |
| 2026-04-25 08:43 | 37.93853 | 23.95213 | 276 ft | 0 kts | 218° |
| 2026-04-25 08:44 | 37.93859 | 23.95219 | 276 ft | 0 kts | 216° |
| 2026-04-25 08:48 | 37.93856 | 23.95216 | 276 ft | 5 kts | 216° |
| 2026-04-25 08:48 | 37.93782 | 23.95143 | 282 ft | 14 kts | 218° |
| 2026-04-25 08:48 | 37.93718 | 23.95116 | 284 ft | 11 kts | 147° |
| 2026-04-25 08:49 | 37.93648 | 23.95219 | 271 ft | 14 kts | 138° |
| 2026-04-25 08:49 | 37.93565 | 23.95200 | 274 ft | 11 kts | 217° |
| 2026-04-25 08:49 | 37.93503 | 23.95141 | 276 ft | 14 kts | 217° |
| 2026-04-25 08:49 | 37.93369 | 23.95012 | 279 ft | 17 kts | 217° |
| 2026-04-25 08:50 | 37.93306 | 23.94952 | 282 ft | 16 kts | 218° |
| 2026-04-25 08:50 | 37.93223 | 23.94873 | 284 ft | 15 kts | 217° |
| 2026-04-25 08:50 | 37.93125 | 23.94779 | 278 ft | 14 kts | 217° |
| 2026-04-25 08:50 | 37.93046 | 23.94705 | 278 ft | 14 kts | 217° |
| 2026-04-25 08:51 | 37.92961 | 23.94625 | 278 ft | 16 kts | 217° |
| 2026-04-25 08:51 | 37.92868 | 23.94535 | 279 ft | 16 kts | 217° |
| 2026-04-25 08:51 | 37.92775 | 23.94448 | 280 ft | 16 kts | 218° |
| 2026-04-25 08:51 | 37.92685 | 23.94362 | 284 ft | 15 kts | 218° |
| 2026-04-25 08:52 | 37.92608 | 23.94288 | 286 ft | 9 kts | 216° |
| 2026-04-25 08:52 | 37.92553 | 23.94301 | 286 ft | 9 kts | 131° |
| 2026-04-25 08:52 | 37.92511 | 23.94367 | 287 ft | 9 kts | 125° |
| 2026-04-25 08:52 | 37.92478 | 23.94422 | 287 ft | 6 kts | 121° |
| 2026-04-25 08:53 | 37.92500 | 23.94465 | 286 ft | 2 kts | 35° |
| 2026-04-25 08:54 | 37.92513 | 23.94477 | 286 ft | 10 kts | 36° |
| 2026-04-25 08:54 | 37.92734 | 23.94687 | 281 ft | 75 kts | 37° |
| 2026-04-25 08:54 | 37.93333 | 23.95256 | 273 ft | 138 kts | 37° |
| 2026-04-25 08:54 | 37.94152 | 23.96036 | 719 ft | 150 kts | 37° |
| 2026-04-25 08:55 | 37.94953 | 23.96818 | 1463 ft | 148 kts | 37° |
| 2026-04-25 08:55 | 37.95737 | 23.97595 | 2189 ft | 145 kts | 36° |
| 2026-04-25 08:55 | 37.96579 | 23.98420 | 2615 ft | 159 kts | 36° |
| 2026-04-25 08:55 | 37.97492 | 23.99310 | 3029 ft | 175 kts | 36° |
| 2026-04-25 08:56 | 37.98496 | 24.00283 | 3449 ft | 191 kts | 36° |
| 2026-04-25 08:56 | 37.99614 | 24.01309 | 3842 ft | 211 kts | 33° |
| 2026-04-25 08:56 | 38.00925 | 24.02361 | 4318 ft | 231 kts | 32° |
| 2026-04-25 08:56 | 38.02335 | 24.03470 | 4851 ft | 249 kts | 32° |
| 2026-04-25 08:57 | 38.03826 | 24.04646 | 5584 ft | 259 kts | 33° |
| 2026-04-25 08:57 | 38.05356 | 24.05863 | 6413 ft | 265 kts | 34° |
| 2026-04-25 08:57 | 38.06917 | 24.07118 | 7210 ft | 272 kts | 34° |
| 2026-04-25 08:57 | 38.08525 | 24.08413 | 8131 ft | 274 kts | 34° |
| 2026-04-25 08:58 | 38.10126 | 24.09688 | 9054 ft | 276 kts | 35° |
| 2026-04-25 08:58 | 38.11738 | 24.10998 | 9918 ft | 279 kts | 35° |
| 2026-04-25 08:58 | 38.13381 | 24.12321 | 10598 ft | 287 kts | 35° |
| 2026-04-25 08:58 | 38.15134 | 24.13734 | 11031 ft | 305 kts | 35° |
| 2026-04-25 08:59 | 38.16967 | 24.15216 | 11396 ft | 323 kts | 34° |
| 2026-04-25 08:59 | 38.18905 | 24.16783 | 11729 ft | 341 kts | 34° |
| 2026-04-25 08:59 | 38.20943 | 24.18433 | 12041 ft | 357 kts | 34° |
| 2026-04-25 08:59 | 38.23068 | 24.20152 | 12457 ft | 369 kts | 34° |
| 2026-04-25 09:00 | 38.25264 | 24.21930 | 13096 ft | 373 kts | 34° |
| 2026-04-25 09:00 | 38.27452 | 24.23701 | 13758 ft | 377 kts | 34° |
| 2026-04-25 09:00 | 38.29659 | 24.25491 | 14394 ft | 380 kts | 34° |
| 2026-04-25 09:00 | 38.31884 | 24.27297 | 15001 ft | 383 kts | 34° |
| 2026-04-25 09:01 | 38.34159 | 24.29146 | 15610 ft | 387 kts | 34° |
| 2026-04-25 09:01 | 38.36421 | 24.30985 | 16191 ft | 390 kts | 34° |
| 2026-04-25 09:01 | 38.38700 | 24.32840 | 16772 ft | 393 kts | 34° |
| 2026-04-25 09:01 | 38.40997 | 24.34711 | 17333 ft | 395 kts | 34° |
| 2026-04-25 09:02 | 38.43372 | 24.36572 | 17890 ft | 399 kts | 30° |
| 2026-04-25 09:02 | 38.45876 | 24.38089 | 18428 ft | 403 kts | 25° |
| 2026-04-25 09:02 | 38.48443 | 24.39509 | 18956 ft | 406 kts | 25° |
| 2026-04-25 09:02 | 38.51035 | 24.40937 | 19463 ft | 409 kts | 25° |
| 2026-04-25 09:03 | 38.53679 | 24.42411 | 19952 ft | 413 kts | 26° |
| 2026-04-25 09:03 | 38.56300 | 24.43891 | 20457 ft | 415 kts | 26° |
| 2026-04-25 09:03 | 38.58930 | 24.45389 | 20961 ft | 417 kts | 26° |
| 2026-04-25 09:03 | 38.61572 | 24.46904 | 21445 ft | 420 kts | 26° |
| 2026-04-25 09:04 | 38.64266 | 24.48454 | 21919 ft | 422 kts | 26° |
| 2026-04-25 09:04 | 38.66935 | 24.49994 | 22382 ft | 424 kts | 26° |
| 2026-04-25 09:04 | 38.69615 | 24.51542 | 22828 ft | 426 kts | 27° |
| 2026-04-25 09:04 | 38.72304 | 24.53098 | 23039 ft | 426 kts | 27° |
| 2026-04-25 09:05 | 38.75031 | 24.54677 | 23041 ft | 425 kts | 27° |
| 2026-04-25 09:05 | 38.77712 | 24.56233 | 23043 ft | 425 kts | 27° |
| 2026-04-25 09:05 | 38.80390 | 24.57788 | 23044 ft | 424 kts | 27° |
| 2026-04-25 09:05 | 38.83064 | 24.59342 | 23044 ft | 424 kts | 27° |
| 2026-04-25 09:06 | 38.85775 | 24.60920 | 23044 ft | 424 kts | 27° |
| 2026-04-25 09:06 | 38.88446 | 24.62474 | 23045 ft | 423 kts | 27° |
| 2026-04-25 09:06 | 38.91110 | 24.64026 | 23047 ft | 422 kts | 27° |
| 2026-04-25 09:06 | 38.93799 | 24.65595 | 23047 ft | 423 kts | 27° |
| 2026-04-25 09:07 | 38.96468 | 24.67151 | 23049 ft | 421 kts | 27° |
| 2026-04-25 09:07 | 38.99128 | 24.68705 | 23045 ft | 421 kts | 27° |
| 2026-04-25 09:07 | 39.01780 | 24.70257 | 23042 ft | 421 kts | 27° |
| 2026-04-25 09:07 | 39.04470 | 24.71831 | 23037 ft | 421 kts | 27° |
| 2026-04-25 09:08 | 39.07125 | 24.73385 | 23031 ft | 421 kts | 27° |
| 2026-04-25 09:08 | 39.09777 | 24.74938 | 23033 ft | 421 kts | 27° |
| 2026-04-25 09:08 | 39.12452 | 24.76506 | 23029 ft | 421 kts | 27° |
| 2026-04-25 09:08 | 39.15105 | 24.78064 | 23026 ft | 421 kts | 27° |
| 2026-04-25 09:09 | 39.17796 | 24.79644 | 23025 ft | 421 kts | 27° |
| 2026-04-25 09:09 | 39.20450 | 24.81205 | 23027 ft | 421 kts | 27° |
| 2026-04-25 09:09 | 39.23104 | 24.82767 | 23031 ft | 421 kts | 27° |
| 2026-04-25 09:09 | 39.25755 | 24.84328 | 23030 ft | 421 kts | 27° |
| 2026-04-25 09:10 | 39.28442 | 24.85911 | 23028 ft | 421 kts | 27° |
| 2026-04-25 09:10 | 39.31094 | 24.87476 | 23028 ft | 420 kts | 27° |
| 2026-04-25 09:10 | 39.33741 | 24.89038 | 23029 ft | 420 kts | 27° |
| 2026-04-25 09:10 | 39.36389 | 24.90605 | 23030 ft | 421 kts | 27° |
| 2026-04-25 09:11 | 39.41734 | 24.93767 | 23030 ft | 421 kts | 27° |
| 2026-04-25 09:11 | 39.44388 | 24.95338 | 23032 ft | 422 kts | 27° |
| 2026-04-25 09:11 | 39.47043 | 24.96912 | 23029 ft | 422 kts | 27° |
| 2026-04-25 09:12 | 39.49736 | 24.98509 | 23030 ft | 422 kts | 27° |
| 2026-04-25 09:12 | 39.52394 | 25.00088 | 23029 ft | 422 kts | 27° |
| 2026-04-25 09:12 | 39.55051 | 25.01666 | 23032 ft | 422 kts | 27° |
| 2026-04-25 09:12 | 39.57708 | 25.03246 | 23032 ft | 422 kts | 27° |
| 2026-04-25 09:13 | 39.60402 | 25.04850 | 23031 ft | 422 kts | 27° |
| 2026-04-25 09:13 | 39.63057 | 25.06433 | 23031 ft | 422 kts | 27° |
| 2026-04-25 09:13 | 39.65709 | 25.08015 | 23032 ft | 422 kts | 27° |
| 2026-04-25 09:13 | 39.68362 | 25.09600 | 23031 ft | 422 kts | 27° |
| 2026-04-25 09:14 | 39.71053 | 25.11207 | 23032 ft | 422 kts | 27° |
| 2026-04-25 09:14 | 39.73710 | 25.12795 | 23030 ft | 422 kts | 26° |
| 2026-04-25 09:14 | 39.76363 | 25.14382 | 23028 ft | 422 kts | 26° |
| 2026-04-25 09:14 | 39.79019 | 25.15974 | 23025 ft | 422 kts | 26° |
| 2026-04-25 09:15 | 39.81713 | 25.17588 | 23024 ft | 422 kts | 26° |
| 2026-04-25 09:15 | 39.84370 | 25.19182 | 23030 ft | 422 kts | 26° |
| 2026-04-25 09:15 | 39.86995 | 25.20756 | 22856 ft | 411 kts | 26° |
| 2026-04-25 09:15 | 39.89558 | 25.22295 | 22428 ft | 402 kts | 26° |
| 2026-04-25 09:16 | 39.92040 | 25.23864 | 21980 ft | 393 kts | 29° |
| 2026-04-25 09:16 | 39.94429 | 25.25597 | 21462 ft | 387 kts | 31° |
| 2026-04-25 09:16 | 39.96728 | 25.27335 | 20978 ft | 382 kts | 32° |
| 2026-04-25 09:16 | 39.98995 | 25.29061 | 20464 ft | 378 kts | 32° |
| 2026-04-25 09:17 | 40.03498 | 25.32491 | 19449 ft | 371 kts | 32° |
| 2026-04-25 09:17 | 40.05706 | 25.34174 | 18943 ft | 369 kts | 32° |
| 2026-04-25 09:17 | 40.07901 | 25.35846 | 18415 ft | 367 kts | 31° |
| 2026-04-25 09:18 | 40.10088 | 25.37514 | 17917 ft | 365 kts | 31° |
| 2026-04-25 09:18 | 40.12273 | 25.39180 | 17397 ft | 363 kts | 31° |
| 2026-04-25 09:18 | 40.14447 | 25.40839 | 16902 ft | 361 kts | 32° |
| 2026-04-25 09:18 | 40.16626 | 25.42502 | 16401 ft | 359 kts | 32° |
| 2026-04-25 09:19 | 40.18759 | 25.44134 | 15892 ft | 356 kts | 31° |
| 2026-04-25 09:19 | 40.20878 | 25.45755 | 15427 ft | 354 kts | 31° |
| 2026-04-25 09:19 | 40.22984 | 25.47368 | 14931 ft | 352 kts | 31° |
| 2026-04-25 09:19 | 40.25108 | 25.48996 | 14445 ft | 350 kts | 31° |
| 2026-04-25 09:20 | 40.27192 | 25.50594 | 13938 ft | 348 kts | 31° |
| 2026-04-25 09:20 | 40.29270 | 25.52188 | 13463 ft | 346 kts | 31° |
| 2026-04-25 09:20 | 40.31330 | 25.53769 | 12987 ft | 344 kts | 31° |
| 2026-04-25 09:20 | 40.33408 | 25.55365 | 12491 ft | 342 kts | 31° |
| 2026-04-25 09:21 | 40.35443 | 25.56930 | 12035 ft | 340 kts | 31° |
| 2026-04-25 09:21 | 40.37466 | 25.58486 | 11559 ft | 338 kts | 31° |
| 2026-04-25 09:21 | 40.39479 | 25.60036 | 11076 ft | 337 kts | 31° |
| 2026-04-25 09:21 | 40.41508 | 25.61601 | 10599 ft | 335 kts | 31° |
| 2026-04-25 09:22 | 40.43469 | 25.63111 | 10334 ft | 317 kts | 31° |
| 2026-04-25 09:22 | 40.45280 | 25.64505 | 10190 ft | 290 kts | 31° |
| 2026-04-25 09:22 | 40.46990 | 25.65824 | 10060 ft | 277 kts | 32° |
| 2026-04-25 09:22 | 40.48634 | 25.67093 | 9815 ft | 274 kts | 32° |
| 2026-04-25 09:23 | 40.50276 | 25.68363 | 9428 ft | 276 kts | 32° |
| 2026-04-25 09:23 | 40.51927 | 25.69642 | 9058 ft | 277 kts | 32° |
| 2026-04-25 09:23 | 40.53605 | 25.70942 | 8699 ft | 277 kts | 32° |
| 2026-04-25 09:23 | 40.55251 | 25.72216 | 8392 ft | 272 kts | 32° |
| 2026-04-25 09:24 | 40.56841 | 25.73447 | 8010 ft | 260 kts | 32° |
| 2026-04-25 09:24 | 40.58358 | 25.74620 | 7674 ft | 249 kts | 32° |
| 2026-04-25 09:24 | 40.59839 | 25.75770 | 7353 ft | 248 kts | 32° |
| 2026-04-25 09:24 | 40.61335 | 25.76932 | 7034 ft | 247 kts | 32° |
| 2026-04-25 09:25 | 40.62807 | 25.78065 | 6754 ft | 245 kts | 29° |
| 2026-04-25 09:25 | 40.64429 | 25.78674 | 6435 ft | 247 kts | 1° |
| 2026-04-25 09:25 | 40.66083 | 25.78147 | 6135 ft | 247 kts | 334° |
| 2026-04-25 09:25 | 40.67421 | 25.76729 | 5773 ft | 246 kts | 313° |
| 2026-04-25 09:26 | 40.68502 | 25.75019 | 5501 ft | 241 kts | 312° |
| 2026-04-25 09:26 | 40.69590 | 25.73397 | 5190 ft | 234 kts | 316° |
| 2026-04-25 09:26 | 40.70733 | 25.71941 | 4872 ft | 226 kts | 321° |
| 2026-04-25 09:26 | 40.71944 | 25.70635 | 4518 ft | 219 kts | 326° |
| 2026-04-25 09:27 | 40.73174 | 25.69509 | 4225 ft | 213 kts | 330° |
| 2026-04-25 09:27 | 40.74423 | 25.68529 | 3985 ft | 206 kts | 335° |
| 2026-04-25 09:27 | 40.75648 | 25.67705 | 3785 ft | 194 kts | 338° |
| 2026-04-25 09:27 | 40.76885 | 25.67070 | 3608 ft | 185 kts | 351° |
| 2026-04-25 09:28 | 40.78148 | 25.67082 | 3535 ft | 182 kts | 16° |
| 2026-04-25 09:28 | 40.79245 | 25.67842 | 3467 ft | 179 kts | 43° |
| 2026-04-25 09:28 | 40.79946 | 25.69176 | 3406 ft | 179 kts | 68° |
| 2026-04-25 09:28 | 40.80316 | 25.70768 | 3369 ft | 180 kts | 74° |
| 2026-04-25 09:29 | 40.80637 | 25.72351 | 3320 ft | 179 kts | 75° |
| 2026-04-25 09:29 | 40.80953 | 25.73930 | 3210 ft | 179 kts | 75° |
| 2026-04-25 09:29 | 40.81267 | 25.75488 | 3120 ft | 171 kts | 75° |
| 2026-04-25 09:29 | 40.81565 | 25.76950 | 2932 ft | 157 kts | 74° |
| 2026-04-25 09:30 | 40.81848 | 25.78291 | 2691 ft | 148 kts | 73° |
| 2026-04-25 09:30 | 40.82114 | 25.79538 | 2552 ft | 139 kts | 73° |
| 2026-04-25 09:30 | 40.82371 | 25.80743 | 2311 ft | 136 kts | 73° |
| 2026-04-25 09:30 | 40.82629 | 25.81952 | 2105 ft | 135 kts | 73° |
| 2026-04-25 09:31 | 40.82883 | 25.83141 | 1904 ft | 135 kts | 73° |
| 2026-04-25 09:31 | 40.83138 | 25.84327 | 1706 ft | 135 kts | 73° |
| 2026-04-25 09:31 | 40.83358 | 25.85522 | 1505 ft | 135 kts | 79° |
| 2026-04-25 09:31 | 40.83532 | 25.86744 | 1319 ft | 134 kts | 76° |
| 2026-04-25 09:32 | 40.83772 | 25.87926 | 1130 ft | 134 kts | 74° |
| 2026-04-25 09:32 | 40.84038 | 25.89107 | 944 ft | 135 kts | 73° |
| 2026-04-25 09:32 | 40.84326 | 25.90284 | 751 ft | 136 kts | 72° |
| 2026-04-25 09:32 | 40.84604 | 25.91491 | 549 ft | 137 kts | 74° |
| 2026-04-25 09:33 | 40.84881 | 25.92663 | 362 ft | 133 kts | 73° |
| 2026-04-25 09:33 | 40.85159 | 25.93826 | 153 ft | 134 kts | 73° |
| 2026-04-25 09:33 | 40.85429 | 25.94976 | 26 ft | 126 kts | 74° |
| 2026-04-25 09:33 | 40.85641 | 25.95893 | 26 ft | 81 kts | 73° |
| 2026-04-25 09:34 | 40.85762 | 25.96414 | 30 ft | 45 kts | 72° |
| 2026-04-25 09:34 | 40.85833 | 25.96711 | 33 ft | 26 kts | 72° |
| 2026-04-25 09:34 | 40.85878 | 25.96904 | 35 ft | 12 kts | 72° |
| 2026-04-25 09:34 | 40.85879 | 25.97001 | 36 ft | 8 kts | 111° |
| 2026-04-25 09:35 | 40.85900 | 25.96999 | 36 ft | 9 kts | 260° |
| 2026-04-25 09:35 | 40.85878 | 25.96902 | 35 ft | 12 kts | 253° |
| 2026-04-25 09:35 | 40.85850 | 25.96783 | 34 ft | 14 kts | 252° |
| 2026-04-25 09:35 | 40.85816 | 25.96642 | 33 ft | 17 kts | 252° |
| 2026-04-25 09:36 | 40.85779 | 25.96483 | 31 ft | 18 kts | 252° |
| 2026-04-25 09:36 | 40.85739 | 25.96310 | 29 ft | 20 kts | 253° |
| 2026-04-25 09:36 | 40.85695 | 25.96126 | 28 ft | 21 kts | 253° |
| 2026-04-25 09:36 | 40.85647 | 25.95928 | 26 ft | 22 kts | 253° |
| 2026-04-25 09:37 | 40.85601 | 25.95725 | 25 ft | 23 kts | 253° |
| 2026-04-25 09:37 | 40.85554 | 25.95522 | 24 ft | 22 kts | 253° |
| 2026-04-25 09:37 | 40.85507 | 25.95322 | 23 ft | 23 kts | 252° |
| 2026-04-25 09:37 | 40.85463 | 25.95129 | 23 ft | 18 kts | 253° |
| 2026-04-25 09:38 | 40.85439 | 25.95018 | 23 ft | 11 kts | 264° |
| 2026-04-25 09:38 | 40.85461 | 25.94912 | 23 ft | 13 kts | 298° |
| 2026-04-25 09:38 | 40.85506 | 25.94802 | 23 ft | 12 kts | 298° |
| 2026-04-25 09:38 | 40.85541 | 25.94723 | 23 ft | 9 kts | 309° |
| 2026-04-25 09:39 | 40.85578 | 25.94673 | 24 ft | 3 kts | 307° |
| 2026-04-25 09:39 | 40.85592 | 25.94645 | 24 ft | 4 kts | 300° |
| 2026-04-25 09:39 | 40.85598 | 25.94618 | 24 ft | 0 kts | 273° |